createdAt,value
2023-02-27T00:03:03.971Z,1.60
2023-02-27T00:08:06.512Z,1.90
2023-02-27T00:13:10.051Z,1.70
2023-02-27T00:18:13.966Z,2.03
2023-02-27T00:23:16.668Z,1.60
2023-02-27T00:28:19.190Z,1.60
2023-02-27T00:33:23.437Z,1.80
2023-02-27T00:38:26.732Z,1.50
2023-02-27T00:43:29.385Z,1.50
2023-02-27T00:48:33.287Z,1.27
2023-02-27T00:53:35.791Z,1.37
2023-02-27T00:58:38.301Z,1.60
2023-02-27T01:03:42.290Z,1.33
2023-02-27T01:08:44.986Z,1.47
2023-02-27T01:13:47.500Z,1.30
2023-02-27T01:18:51.328Z,1.75
2023-02-27T01:23:53.814Z,1.70
2023-02-27T01:28:56.331Z,1.70
2023-02-27T01:34:00.212Z,1.83
2023-02-27T01:39:02.716Z,1.73
2023-02-27T01:44:07.602Z,1.40
2023-02-27T01:49:16.912Z,1.90
2023-02-27T01:54:22.314Z,1.83
2023-02-27T01:59:25.042Z,1.80
2023-02-27T02:04:30.940Z,1.67
2023-02-27T02:09:38.499Z,1.70
2023-02-27T02:14:41.034Z,1.40
2023-02-27T02:20:17.745Z,1.53
2023-02-27T02:25:55.590Z,1.75
2023-02-27T02:31:30.774Z,1.35
2023-02-27T02:37:08.145Z,1.30
2023-02-27T02:42:20.805Z,1.25
2023-02-27T02:47:31.975Z,1.48
2023-02-27T02:52:45.699Z,1.60
2023-02-27T02:57:57.229Z,1.67
2023-02-27T03:03:06.408Z,1.60
2023-02-27T03:08:13.061Z,1.80
2023-02-27T03:13:24.945Z,1.60
2023-02-27T03:18:33.319Z,1.77
2023-02-27T03:23:42.301Z,1.67
2023-02-27T03:28:54.999Z,1.70
2023-02-27T03:34:05.480Z,1.90
2023-02-27T03:39:17.855Z,1.77
2023-02-27T03:44:28.987Z,2.07
2023-02-27T03:49:31.733Z,2.25
2023-02-27T03:54:37.675Z,2.53
2023-02-27T03:59:42.501Z,2.03
2023-02-27T04:04:45.103Z,2.83
2023-02-27T04:10:17.331Z,2.85
2023-02-27T04:15:29.696Z,3.40
2023-02-27T04:20:43.081Z,2.63
2023-02-27T04:25:55.456Z,3.15
2023-02-27T04:31:12.585Z,3.30
2023-02-27T04:36:24.222Z,2.70
2023-02-27T04:41:30.861Z,2.45
2023-02-27T04:46:37.179Z,3.13
2023-02-27T04:51:45.739Z,2.80
2023-02-27T04:56:53.574Z,2.53
2023-02-27T05:02:02.534Z,3.45
2023-02-27T05:07:09.376Z,3.00
2023-02-27T05:12:17.460Z,3.07
2023-02-27T05:17:26.705Z,4.30
2023-02-27T05:22:37.052Z,3.80
2023-02-27T05:27:43.266Z,3.23
2023-02-27T05:32:53.048Z,3.03
2023-02-27T05:38:04.967Z,3.70
2023-02-27T05:43:12.928Z,3.23
2023-02-27T05:48:21.758Z,3.60
2023-02-27T05:53:30.450Z,3.15
2023-02-27T05:58:37.657Z,2.95
2023-02-27T06:03:42.660Z,3.03
2023-02-27T06:08:46.985Z,3.90
2023-02-27T06:13:49.529Z,4.40
2023-02-27T06:18:53.335Z,4.40
2023-02-27T06:23:55.847Z,4.47
2023-02-27T06:28:58.340Z,4.80
2023-02-27T06:34:02.295Z,5.03
2023-02-27T06:39:05.951Z,4.87
2023-02-27T06:44:08.476Z,5.90
2023-02-27T06:49:12.276Z,5.72
2023-02-27T06:54:14.866Z,6.07
2023-02-27T06:59:17.336Z,6.25
2023-02-27T07:04:21.286Z,4.53
2023-02-27T07:09:24.062Z,5.60
2023-02-27T07:14:27.205Z,5.50
2023-02-27T07:19:31.703Z,6.05
2023-02-27T07:24:34.169Z,7.10
2023-02-27T07:29:36.712Z,7.70
2023-02-27T07:34:40.531Z,8.45
2023-02-27T07:39:43.054Z,9.18
2023-02-27T07:44:45.840Z,9.67
2023-02-27T07:49:49.646Z,9.75
2023-02-27T07:54:52.320Z,9.30
2023-02-27T07:59:54.784Z,9.13
2023-02-27T08:04:58.701Z,9.82
2023-02-27T08:10:01.234Z,8.38
2023-02-27T08:15:04.252Z,9.07
2023-02-27T08:20:11.271Z,7.73
2023-02-27T08:25:13.785Z,8.18
2023-02-27T08:30:16.904Z,7.85
2023-02-27T08:35:20.864Z,7.80
2023-02-27T08:40:23.393Z,6.95
2023-02-27T08:45:26.030Z,6.57
2023-02-27T08:50:29.903Z,6.83
2023-02-27T08:55:32.481Z,6.47
2023-02-27T09:00:34.973Z,6.55
2023-02-27T09:05:38.801Z,6.43
2023-02-27T09:10:41.974Z,2.30
2023-02-27T09:15:44.591Z,2.22
2023-02-27T09:20:50.999Z,1.90
2023-02-27T09:25:53.909Z,2.40
2023-02-27T09:30:56.926Z,2.13
2023-02-27T09:36:00.795Z,2.45
2023-02-27T09:41:05.208Z,1.80
2023-02-27T09:46:08.880Z,1.90
2023-02-27T09:51:14.945Z,1.15
2023-02-27T09:56:23.033Z,1.10
2023-02-27T10:01:30.377Z,0.90
2023-02-27T10:06:40.164Z,1.23
2023-02-27T10:11:52.973Z,1.00
2023-02-27T10:16:58.109Z,0.80
2023-02-27T10:22:07.157Z,1.00
2023-02-27T10:27:16.923Z,3.25
2023-02-27T10:32:25.287Z,1.10
2023-02-27T10:37:30.352Z,1.00
2023-02-27T10:42:37.148Z,1.00
2023-02-27T10:47:39.737Z,0.80
2023-02-27T10:52:51.400Z,1.00
2023-02-27T10:57:56.497Z,1.15
2023-02-27T11:02:59.328Z,0.80
2023-02-27T11:08:15.198Z,0.80
2023-02-27T11:13:21.599Z,0.82
2023-02-27T11:18:29.333Z,0.80
2023-02-27T11:23:33.861Z,0.70
2023-02-27T11:28:36.365Z,0.60
2023-02-27T11:33:41.682Z,0.70
2023-02-27T11:38:53.918Z,0.60
2023-02-27T11:43:58.815Z,0.70
2023-02-27T11:49:14.601Z,0.90
2023-02-27T11:54:34.696Z,0.70
2023-02-27T11:59:45.865Z,0.80
2023-02-27T12:04:52.443Z,0.65
2023-02-27T12:10:02.847Z,0.68
2023-02-27T12:15:17.091Z,0.77
2023-02-27T12:20:28.027Z,0.70
2023-02-27T12:25:46.325Z,0.60
2023-02-27T12:30:57.266Z,0.80
2023-02-27T12:36:03.533Z,0.80
2023-02-27T12:41:31.514Z,0.93
2023-02-27T12:46:44.491Z,1.00
2023-02-27T12:51:55.289Z,0.70
2023-02-27T12:57:10.657Z,0.98
2023-02-27T13:02:30.932Z,0.90
2023-02-27T13:07:38.191Z,1.07
2023-02-27T13:12:50.027Z,0.80
2023-02-27T13:17:58.611Z,0.73
2023-02-27T13:23:14.645Z,0.73
2023-02-27T13:28:21.817Z,0.80
2023-02-27T13:33:33.709Z,0.70
2023-02-27T13:38:43.467Z,0.60
2023-02-27T13:43:52.518Z,0.40
2023-02-27T13:48:55.998Z,0.90
2023-02-27T13:54:16.193Z,0.70
2023-02-27T13:59:24.372Z,0.80
2023-02-27T14:04:29.548Z,1.80
2023-02-27T14:09:36.954Z,1.00
2023-02-27T14:14:45.760Z,0.87
2023-02-27T14:19:56.899Z,0.67
2023-02-27T14:25:06.417Z,0.70
2023-02-27T14:30:27.182Z,0.90
2023-02-27T14:35:30.992Z,0.67
2023-02-27T14:40:39.962Z,1.00
2023-02-27T14:45:43.923Z,0.77
2023-02-27T14:50:46.556Z,0.77
2023-02-27T14:55:54.588Z,1.10
2023-02-27T15:01:09.707Z,1.50
2023-02-27T15:06:19.302Z,1.20
2023-02-27T15:11:23.991Z,1.17
2023-02-27T15:16:37.361Z,1.45
2023-02-27T15:21:42.076Z,1.20
2023-02-27T15:26:46.747Z,1.00
2023-02-27T15:31:50.933Z,1.48
2023-02-27T15:36:55.568Z,1.17
2023-02-27T15:42:01.991Z,0.90
2023-02-27T15:47:06.997Z,0.70
2023-02-27T15:52:16.303Z,0.77
2023-02-27T15:57:20.247Z,0.90
2023-02-27T16:02:28.353Z,1.10
2023-02-27T16:07:40.190Z,1.10
2023-02-27T16:12:42.950Z,1.88
2023-02-27T16:17:55.709Z,1.00
2023-02-27T16:23:05.742Z,0.90
2023-02-27T16:28:13.941Z,1.05
2023-02-27T16:33:23.331Z,1.40
2023-02-27T16:38:25.849Z,3.53
2023-02-27T16:43:28.486Z,2.88
2023-02-27T16:48:32.321Z,2.40
2023-02-27T16:53:34.816Z,1.60
2023-02-27T16:58:37.829Z,1.75
2023-02-27T17:03:41.817Z,1.30
2023-02-27T17:08:45.173Z,5.73
2023-02-27T17:13:47.677Z,3.53
2023-02-27T17:18:51.570Z,1.40
2023-02-27T17:23:54.543Z,2.30
2023-02-27T17:28:57.727Z,2.13
2023-02-27T17:34:03.502Z,2.05
2023-02-27T17:39:06.126Z,1.40
2023-02-27T17:44:10.272Z,3.10
2023-02-27T17:49:14.098Z,2.25
2023-02-27T17:54:16.593Z,3.60
2023-02-27T17:59:19.252Z,3.47
2023-02-27T18:04:23.086Z,4.15
2023-02-27T18:09:25.553Z,6.15
2023-02-27T18:14:28.136Z,3.90
2023-02-27T18:19:32.636Z,3.92
2023-02-27T18:24:35.329Z,4.95
2023-02-27T18:29:38.473Z,5.83
2023-02-27T18:34:43.375Z,6.63
2023-02-27T18:39:45.910Z,6.72
2023-02-27T18:44:48.565Z,6.50
2023-02-27T18:49:52.820Z,6.70
2023-02-27T18:54:55.493Z,7.00
2023-02-27T18:59:58.028Z,6.20
2023-02-27T19:05:03.020Z,6.83
2023-02-27T19:10:07.754Z,6.93
2023-02-27T19:15:11.914Z,7.47
2023-02-27T19:20:17.139Z,5.40
2023-02-27T19:25:19.755Z,7.03
2023-02-27T19:30:22.486Z,6.50
2023-02-27T19:35:26.460Z,6.68
2023-02-27T19:40:29.333Z,5.80
2023-02-27T19:45:32.837Z,7.85
2023-02-27T19:50:36.770Z,5.55
2023-02-27T19:55:39.273Z,4.00
2023-02-27T20:00:41.870Z,3.40
2023-02-27T20:05:46.295Z,3.67
2023-02-27T20:10:55.129Z,4.30
2023-02-27T20:15:58.682Z,5.20
2023-02-27T20:21:05.071Z,5.05
2023-02-27T20:26:15.392Z,5.22
2023-02-27T20:31:21.119Z,4.90
2023-02-27T20:36:25.187Z,4.85
2023-02-27T20:41:29.761Z,4.22
2023-02-27T20:46:32.492Z,3.97
2023-02-27T20:51:38.325Z,3.42
2023-02-27T20:56:42.180Z,3.20
2023-02-27T21:01:51.389Z,3.60
2023-02-27T21:06:55.755Z,3.13
2023-02-27T21:11:58.241Z,2.83
2023-02-27T21:17:00.785Z,2.35
2023-02-27T21:22:04.872Z,2.10
2023-02-27T21:27:07.706Z,2.05
2023-02-27T21:32:10.234Z,2.60
2023-02-27T21:37:14.088Z,2.87
2023-02-27T21:42:16.588Z,2.83
2023-02-27T21:47:20.657Z,3.70
2023-02-27T21:52:24.540Z,4.30
2023-02-27T21:57:27.205Z,4.27
2023-02-27T22:02:29.736Z,3.97
2023-02-27T22:07:33.593Z,3.95
2023-02-27T22:12:36.071Z,3.97
2023-02-27T22:17:38.595Z,3.58
2023-02-27T22:22:42.422Z,4.05
2023-02-27T22:27:44.915Z,3.97
2023-02-27T22:32:47.417Z,4.38
2023-02-27T22:37:51.431Z,4.45
2023-02-27T22:42:53.952Z,4.80
2023-02-27T22:47:56.433Z,3.90
2023-02-27T22:53:00.249Z,3.90
2023-02-27T22:58:02.785Z,4.20
2023-02-27T23:03:05.276Z,3.67
2023-02-27T23:08:09.233Z,3.92
2023-02-27T23:13:11.996Z,3.42
2023-02-27T23:18:14.777Z,3.70
2023-02-27T23:23:18.611Z,3.50
2023-02-27T23:28:21.180Z,4.05
2023-02-27T23:33:23.693Z,4.17
2023-02-27T23:38:28.505Z,3.80
2023-02-27T23:43:30.980Z,3.30
2023-02-27T23:48:33.598Z,3.58
2023-02-27T23:53:41.261Z,3.90
2023-02-27T23:58:43.918Z,3.47
